^^
Station Historical Data
Daily Summary for February 24, 2017 Units:  Metric    English   Both
« Previous Day
Next Day »
Daily Weekly Monthly Yearly Custom
  High: Low: Average:
Temperature: 30.7 °C 18.9 °C 25.7 °C
Dew Point: 11.8 °C 3.9 °C 8.3 °C
Humidity: 51% 23% 34%
Wind Speed: 40.4km/h 0km/h 15.3km/h
Wind Gust: 41.8km/h - -
Wind- - SSW
Pressure: 1011.1 hPa 1005.3 hPa -
Precipitation: 0 mm    
Historical Graphs
 
 
Tabular Data for February 24, 2017
Time Temperature Dew Point Pressure Wind Wind Speed Wind Gust Humidity Rainfall Rate (Hourly) solar Conditions
06:40 18.9 °C 8.5 °C 1006.7 hPa Calm     51% 0 mm 5.0 W/m2
06:50 19 °C 8.3 °C 1007 hPa Calm     50% 0 mm 12.0 W/m2
07:03 19.1 °C 8.7 °C 1007 hPa Calm     51% 0 mm 23.0 W/m2
08:16 23 °C 9.4 °C 1007.7 hPa SSW 6.4 km/h 6.4 km/h 42% 0 mm 283.0 W/m2
08:27 23.3 °C 9.3 °C 1008 hPa SSW 9.7 km/h 9.7 km/h 41% 0 mm 322.0 W/m2
08:32 23.6 °C 9.2 °C 1008 hPa SSW 6.4 km/h 9.7 km/h 40% 0 mm 359.0 W/m2
08:50 24.1 °C 9.7 °C 1008 hPa Calm   6.4 km/h 40% 0 mm 396.0 W/m2
08:58 24.7 °C 9.8 °C 1008 hPa Calm     39% 0 mm 450.0 W/m2
09:21 25.6 °C 10.2 °C 1008.4 hPa Calm     38% 0 mm 504.0 W/m2
09:35 26.9 °C 10.1 °C 1008.4 hPa Calm     35% 0 mm 561.0 W/m2
09:45 27.8 °C 10.5 °C 1008 hPa Calm     34% 0 mm 592.0 W/m2
09:55 28.4 °C 11.5 °C 1008 hPa SSW 3.2 km/h 3.2 km/h 35% 0 mm 617.0 W/m2
10:06 28.8 °C 11.8 °C 1008 hPa SW 7.9 km/h 11.3 km/h 35% 0 mm 643.0 W/m2
10:15 28.7 °C 11.3 °C 1008 hPa West 1.4 km/h 6.4 km/h 34% 0 mm 677.0 W/m2
10:23 28.8 °C 10.9 °C 1008 hPa West 4.7 km/h 12.9 km/h 33% 0 mm 701.0 W/m2
17:44 30.7 °C 7.8 °C 1005.3 hPa SW 37 km/h 37 km/h 24% 0 mm 49.0 W/m2
17:59 30.6 °C 7.1 °C 1005.6 hPa SSW 27.4 km/h 33.8 km/h 23% 0 mm 162.0 W/m2
18:04 30.4 °C 6.9 °C 1005.6 hPa SSW 22.7 km/h 33.8 km/h 23% 0 mm 239.0 W/m2
18:07 30.3 °C 6.9 °C 1005.6 hPa SSW 28.8 km/h 38.6 km/h 23% 0 mm 197.0 W/m2
18:15 29.9 °C 7.1 °C 1005.6 hPa SSW 25.9 km/h 33.8 km/h 24% 0 mm 69.0 W/m2
18:21 29.6 °C 6.9 °C 1006 hPa SSW 28.8 km/h 38.6 km/h 24% 0 mm 58.0 W/m2
18:32 29.3 °C 7.2 °C 1006.3 hPa SSW 40.4 km/h 41.8 km/h 25% 0 mm 127.0 W/m2
18:41 28.8 °C 7.4 °C 1006.3 hPa SW 35.2 km/h 38.6 km/h 26% 0 mm 28.0 W/m2
18:51 28.4 °C 7.6 °C 1006.7 hPa SSW 25.9 km/h 35.4 km/h 27% 0 mm 47.0 W/m2
19:01 28.2 °C 8 °C 1006.7 hPa SSW 30.6 km/h 40.2 km/h 28% 0 mm 25.0 W/m2
21:06 24.7 °C 3.9 °C 1009.7 hPa SSW 24.1 km/h 29 km/h 26% 0 mm 0.0 W/m2
21:18 24.7 °C 5 °C 1010 hPa South 22.7 km/h 27.4 km/h 28% 0 mm 0.0 W/m2
21:27 24.6 °C 5.9 °C 1010 hPa South 17.7 km/h 25.7 km/h 30% 0 mm 0.0 W/m2
21:32 24.3 °C 6.5 °C 1010.4 hPa South 27.4 km/h 30.6 km/h 32% 0 mm 0.0 W/m2
21:54 24.2 °C 6.9 °C 1010.7 hPa SSW 24.1 km/h 25.7 km/h 33% 0 mm 0.0 W/m2
22:09 24.1 °C 7.7 °C 1010.7 hPa SSW 14.3 km/h 22.5 km/h 35% 0 mm 0.0 W/m2
22:25 23.8 °C 7.8 °C 1010.7 hPa South 16.3 km/h 22.5 km/h 36% 0 mm 0.0 W/m2
22:37 23.7 °C 8.1 °C 1010.7 hPa South 9.7 km/h 17.7 km/h 37% 0 mm 0.0 W/m2
22:46 23.6 °C 8.1 °C 1010.7 hPa SSW 17.7 km/h 20.9 km/h 37% 0 mm 0.0 W/m2
22:48 23.6 °C 8.1 °C 1010.7 hPa SSW 11.1 km/h 17.7 km/h 37% 0 mm 0.0 W/m2
23:02 23.3 °C 8.2 °C 1010.7 hPa SSW 13 km/h 19.3 km/h 38% 0 mm 0.0 W/m2
23:10 23.1 °C 8.4 °C 1010.7 hPa SSW 16.3 km/h 20.9 km/h 39% 0 mm 0.0 W/m2
23:59 21.9 °C 9.1 °C 1011.1 hPa SSW 24.1 km/h 25.7 km/h 44% 0 mm 0.0 W/m2
Canyon Roadhouse, Fishriver Canyon, Namibia
Compliments of Weather Underground - 1.75 mb